Time;durP1;ratioP1;P1;durP2;ratioP2;P2;SDS_P1;SDS_P2;PMS_P1;PMS_P2;Temp;Humidity;BMP_temperature;BMP_pressure;BME280_temperature;BME280_humidity;BME280_pressure;Samples;Min_cycle;Max_cycle;Signal;HPM_P1;HPM_P2
2022/05/06 00:00:10;;;;;;;6.18;4.78;;;;;;;;;;4978462;28;20037;-21
2022/05/06 00:02:36;;;;;;;5.82;5.25;;;;;;;;;;4978404;28;20408;-24
2022/05/06 00:05:03;;;;;;;8.60;4.90;;;;;;;;;;4978411;28;20054;-23
2022/05/06 00:07:29;;;;;;;5.28;4.53;;;;;;;;;;4978345;28;20038;-23
2022/05/06 00:09:55;;;;;;;6.03;4.75;;;;;;;;;;4978295;28;20058;-20
2022/05/06 00:12:21;;;;;;;7.78;4.93;;;;;;;;;;4978382;28;20054;-21
2022/05/06 00:14:47;;;;;;;5.20;4.70;;;;;;;;;;4977843;28;20400;-21
2022/05/06 00:17:14;;;;;;;8.48;4.85;;;;;;;;;;4978126;28;20038;-21
2022/05/06 00:19:43;;;;;;;6.18;5.00;;;;;;;;;;4978658;28;20031;-20
2022/05/06 00:22:10;;;;;;;9.88;4.78;;;;;;;;;;4978025;28;20106;-23
2022/05/06 00:24:36;;;;;;;8.88;5.35;;;;;;;;;;4978286;28;20166;-20
2022/05/06 00:27:03;;;;;;;12.90;5.43;;;;;;;;;;4978255;28;20058;-20
2022/05/06 00:29:29;;;;;;;11.60;5.25;;;;;;;;;;4978160;28;20348;-20
2022/05/06 00:31:56;;;;;;;5.32;4.78;;;;;;;;;;4977865;28;20026;-21
2022/05/06 00:34:22;;;;;;;6.00;4.63;;;;;;;;;;4977901;28;20062;-21
2022/05/06 00:36:48;;;;;;;10.13;5.07;;;;;;;;;;4977878;28;20150;-22
2022/05/06 00:39:14;;;;;;;6.20;4.40;;;;;;;;;;4978053;28;20325;-21
2022/05/06 00:41:41;;;;;;;8.30;4.82;;;;;;;;;;4977971;28;20062;-22
2022/05/06 00:44:07;;;;;;;9.27;6.18;;;;;;;;;;4977683;28;20039;-21
2022/05/06 00:46:38;;;;;;;6.43;4.85;;;;;;;;;;4977730;28;20451;-22
2022/05/06 00:49:04;;;;;;;5.30;4.90;;;;;;;;;;4977878;28;20027;-22
2022/05/06 00:51:31;;;;;;;8.70;4.85;;;;;;;;;;4960581;28;20479;-22
2022/05/06 00:53:57;;;;;;;7.22;5.25;;;;;;;;;;4977751;28;20027;-27
2022/05/06 00:56:27;;;;;;;6.50;5.85;;;;;;;;;;4978024;28;20027;-23
2022/05/06 00:58:53;;;;;;;11.70;5.20;;;;;;;;;;4977972;28;20035;-21
2022/05/06 01:01:19;;;;;;;5.55;5.00;;;;;;;;;;4977448;28;20031;-22
2022/05/06 01:03:46;;;;;;;8.98;4.47;;;;;;;;;;4977068;28;20039;-23
2022/05/06 01:06:15;;;;;;;6.38;4.28;;;;;;;;;;4977549;28;20034;-23
2022/05/06 01:08:42;;;;;;;5.03;4.47;;;;;;;;;;4960162;28;20031;-21
2022/05/06 01:11:08;;;;;;;4.93;4.43;;;;;;;;;;4977216;28;20468;-22
2022/05/06 01:13:45;;;;;;;7.35;4.63;;;;;;;;;;4977081;28;20027;-22
2022/05/06 01:16:14;;;;;;;6.15;4.80;;;;;;;;;;4977327;28;20019;-21
2022/05/06 01:18:41;;;;;;;7.43;4.75;;;;;;;;;;4977291;28;20115;-21
2022/05/06 01:21:07;;;;;;;5.35;4.85;;;;;;;;;;4977038;28;20396;-23
2022/05/06 01:23:35;;;;;;;6.75;4.45;;;;;;;;;;4976853;28;20077;-23
2022/05/06 01:26:01;;;;;;;7.28;5.40;;;;;;;;;;4975905;28;20022;-21
2022/05/06 01:28:28;;;;;;;5.25;4.57;;;;;;;;;;4976725;28;20109;-22
2022/05/06 01:31:03;;;;;;;7.30;5.40;;;;;;;;;;4959804;28;20030;-21
2022/05/06 01:33:30;;;;;;;6.13;4.60;;;;;;;;;;4977022;28;20081;-24
2022/05/06 01:36:02;;;;;;;7.57;4.85;;;;;;;;;;4976504;28;20031;-21
2022/05/06 01:38:35;;;;;;;6.43;4.35;;;;;;;;;;4976985;28;20046;-21
2022/05/06 01:41:09;;;;;;;9.38;4.20;;;;;;;;;;4960389;28;20030;-22
2022/05/06 01:43:39;;;;;;;5.15;4.65;;;;;;;;;;4976822;28;20352;-21
2022/05/06 01:46:08;;;;;;;4.78;4.38;;;;;;;;;;4976876;28;20101;-23
2022/05/06 01:48:36;;;;;;;6.25;4.43;;;;;;;;;;4976993;28;20114;-24
2022/05/06 01:51:03;;;;;;;5.18;4.68;;;;;;;;;;4976437;28;20098;-22
2022/05/06 01:53:29;;;;;;;7.65;4.22;;;;;;;;;;4976413;28;20034;-22
2022/05/06 01:55:55;;;;;;;5.03;4.47;;;;;;;;;;4959371;28;20034;-21
2022/05/06 01:58:21;;;;;;;4.40;4.00;;;;;;;;;;4976879;28;20109;-22
2022/05/06 02:00:48;;;;;;;6.05;4.80;;;;;;;;;;4976349;28;20023;-22
2022/05/06 02:05:58;;;;;;;6.10;5.20;;;;;;;;;;4976551;28;20114;-21
2022/05/06 02:08:24;;;;;;;6.28;4.60;;;;;;;;;;4976109;28;20023;-22
2022/05/06 02:10:50;;;;;;;4.38;3.70;;;;;;;;;;4976444;28;20455;-22
2022/05/06 02:13:18;;;;;;;6.55;4.40;;;;;;;;;;4976303;28;20034;-27
2022/05/06 02:15:45;;;;;;;6.53;4.00;;;;;;;;;;4976036;28;20165;-23
2022/05/06 02:18:11;;;;;;;7.18;5.07;;;;;;;;;;4976058;28;20476;-26
2022/05/06 02:20:37;;;;;;;5.93;4.18;;;;;;;;;;4976268;28;20078;-25
2022/05/06 02:23:03;;;;;;;6.93;4.75;;;;;;;;;;4975876;28;20046;-22
2022/05/06 02:25:30;;;;;;;5.45;4.63;;;;;;;;;;4975904;28;20031;-21
2022/05/06 02:27:56;;;;;;;8.95;4.35;;;;;;;;;;4975894;28;20089;-21
2022/05/06 02:33:13;;;;;;;4.65;4.00;;;;;;;;;;4975917;28;20487;-22
2022/05/06 02:35:40;;;;;;;8.63;4.82;;;;;;;;;;4976070;28;20360;-23
2022/05/06 02:38:08;;;;;;;6.70;4.35;;;;;;;;;;4975906;28;20046;-21
2022/05/06 02:40:35;;;;;;;5.10;4.30;;;;;;;;;;4976100;28;20136;-24
2022/05/06 02:43:02;;;;;;;5.85;4.13;;;;;;;;;;4975793;28;20042;-21
2022/05/06 02:45:28;;;;;;;4.75;4.40;;;;;;;;;;4976018;28;20074;-21
2022/05/06 02:47:54;;;;;;;5.75;4.53;;;;;;;;;;4975996;28;20507;-22
2022/05/06 02:50:20;;;;;;;8.77;4.30;;;;;;;;;;4975570;28;20110;-25
2022/05/06 02:52:47;;;;;;;9.15;4.18;;;;;;;;;;4975879;28;20054;-23
2022/05/06 02:55:13;;;;;;;5.18;4.30;;;;;;;;;;4976204;28;20488;-23
2022/05/06 02:57:39;;;;;;;5.28;4.78;;;;;;;;;;4975623;28;20058;-21
2022/05/06 03:00:05;;;;;;;5.45;4.57;;;;;;;;;;4975675;28;20403;-21
2022/05/06 03:02:32;;;;;;;4.20;3.83;;;;;;;;;;4975289;28;20053;-21
2022/05/06 03:04:58;;;;;;;8.82;4.38;;;;;;;;;;4975825;28;20034;-21
2022/05/06 03:07:24;;;;;;;6.50;3.88;;;;;;;;;;4976127;28;20030;-23
2022/05/06 03:09:52;;;;;;;6.18;4.38;;;;;;;;;;4975434;28;20118;-23
2022/05/06 03:12:19;;;;;;;5.18;4.47;;;;;;;;;;4975951;28;20026;-22
2022/05/06 03:14:45;;;;;;;6.53;4.85;;;;;;;;;;4975748;28;20519;-24
2022/05/06 03:17:12;;;;;;;5.03;4.03;;;;;;;;;;4975711;28;20019;-23
2022/05/06 03:19:39;;;;;;;4.57;4.15;;;;;;;;;;4975685;28;20057;-21
2022/05/06 03:22:07;;;;;;;4.25;3.85;;;;;;;;;;4975264;28;20023;-24
2022/05/06 03:24:33;;;;;;;7.93;4.18;;;;;;;;;;4975624;28;20364;-24
2022/05/06 03:27:00;;;;;;;5.53;3.90;;;;;;;;;;4958401;28;20118;-22
2022/05/06 03:29:26;;;;;;;8.50;3.92;;;;;;;;;;4975542;28;20030;-21
2022/05/06 03:31:53;;;;;;;6.65;3.50;;;;;;;;;;4975527;28;20027;-21
2022/05/06 03:34:20;;;;;;;4.80;4.30;;;;;;;;;;4975820;28;20027;-22
2022/05/06 03:36:46;;;;;;;6.20;4.95;;;;;;;;;;4975306;28;20023;-21
2022/05/06 03:39:13;;;;;;;4.68;4.15;;;;;;;;;;4975191;28;20045;-22
2022/05/06 03:41:39;;;;;;;3.97;3.58;;;;;;;;;;4975229;28;20023;-23
2022/05/06 03:44:09;;;;;;;7.00;4.25;;;;;;;;;;4975240;28;20023;-21
2022/05/06 03:46:35;;;;;;;5.50;3.38;;;;;;;;;;4975463;28;20046;-23
2022/05/06 03:49:01;;;;;;;5.20;4.00;;;;;;;;;;4976881;28;20463;-22
2022/05/06 03:51:31;;;;;;;6.95;4.25;;;;;;;;;;4961640;28;20137;-21
2022/05/06 03:53:57;;;;;;;5.78;4.18;;;;;;;;;;4978710;28;20041;-22
2022/05/06 03:56:24;;;;;;;4.70;3.55;;;;;;;;;;4978530;28;20094;-21
2022/05/06 03:58:51;;;;;;;7.80;3.95;;;;;;;;;;4978705;28;20114;-21
2022/05/06 04:01:19;;;;;;;7.20;5.32;;;;;;;;;;4961401;28;20114;-21
2022/05/06 04:03:46;;;;;;;6.63;3.28;;;;;;;;;;4978132;28;20419;-21
2022/05/06 04:06:14;;;;;;;7.57;3.78;;;;;;;;;;4978427;28;20050;-21
2022/05/06 04:08:41;;;;;;;4.47;4.03;;;;;;;;;;4978310;28;20092;-22
2022/05/06 04:11:08;;;;;;;5.60;3.80;;;;;;;;;;4978423;28;20081;-23
2022/05/06 04:13:35;;;;;;;4.75;4.25;;;;;;;;;;4960949;28;20023;-22
2022/05/06 04:16:04;;;;;;;6.10;3.75;;;;;;;;;;4978022;28;20037;-22
2022/05/06 04:18:30;;;;;;;4.95;3.72;;;;;;;;;;4978013;28;20460;-22
2022/05/06 04:23:41;;;;;;;6.82;3.88;;;;;;;;;;4978432;28;20038;-23
2022/05/06 04:26:09;;;;;;;10.18;4.13;;;;;;;;;;4977860;28;20027;-24
2022/05/06 04:28:36;;;;;;;5.35;3.75;;;;;;;;;;4977812;28;20110;-22
2022/05/06 04:31:02;;;;;;;5.70;4.00;;;;;;;;;;4977879;28;20038;-23
2022/05/06 04:33:29;;;;;;;5.10;3.70;;;;;;;;;;4977724;28;20023;-24
2022/05/06 04:35:56;;;;;;;4.40;3.63;;;;;;;;;;4977780;28;20073;-24
2022/05/06 04:38:23;;;;;;;4.18;3.60;;;;;;;;;;4977744;28;20030;-22
2022/05/06 04:40:49;;;;;;;4.95;3.42;;;;;;;;;;4977941;28;20034;-22
2022/05/06 04:43:18;;;;;;;7.82;3.90;;;;;;;;;;4977902;28;20368;-22
2022/05/06 04:45:45;;;;;;;8.35;3.88;;;;;;;;;;4960548;28;20026;-22
2022/05/06 04:48:12;;;;;;;6.18;3.60;;;;;;;;;;4977569;28;20034;-21
2022/05/06 04:50:38;;;;;;;5.35;3.95;;;;;;;;;;4977693;28;20412;-23
2022/05/06 04:53:07;;;;;;;5.63;3.78;;;;;;;;;;4977308;28;20372;-23
2022/05/06 04:55:37;;;;;;;7.53;5.55;;;;;;;;;;4977568;28;20049;-22
2022/05/06 04:58:03;;;;;;;6.80;4.03;;;;;;;;;;4977137;28;20035;-22
2022/05/06 05:00:30;;;;;;;4.95;3.30;;;;;;;;;;4977168;28;20034;-24
2022/05/06 05:02:56;;;;;;;4.20;3.80;;;;;;;;;;4976885;28;20061;-22
2022/05/06 05:05:22;;;;;;;6.70;3.83;;;;;;;;;;4977217;28;20218;-22
2022/05/06 05:07:48;;;;;;;8.82;3.33;;;;;;;;;;4977171;28;20030;-22
2022/05/06 05:10:14;;;;;;;7.60;4.10;;;;;;;;;;4977382;28;20089;-22
2022/05/06 05:12:41;;;;;;;6.95;3.90;;;;;;;;;;4977044;28;20085;-23
2022/05/06 05:15:07;;;;;;;11.98;3.80;;;;;;;;;;4960010;28;20050;-22
2022/05/06 05:17:33;;;;;;;10.10;4.25;;;;;;;;;;4976968;28;20077;-22
2022/05/06 05:20:00;;;;;;;8.55;3.97;;;;;;;;;;4976926;28;20034;-22
2022/05/06 05:22:26;;;;;;;10.15;3.95;;;;;;;;;;4976810;28;20046;-20
2022/05/06 05:24:52;;;;;;;6.38;4.13;;;;;;;;;;4976950;28;20041;-22
2022/05/06 05:27:19;;;;;;;9.05;3.35;;;;;;;;;;4976992;28;20050;-23
2022/05/06 05:29:45;;;;;;;4.97;4.10;;;;;;;;;;4976621;28;20397;-24
2022/05/06 05:32:12;;;;;;;9.05;4.10;;;;;;;;;;4977055;28;20082;-25
2022/05/06 05:34:40;;;;;;;8.90;3.30;;;;;;;;;;4976939;28;20031;-25
2022/05/06 05:37:07;;;;;;;6.18;3.88;;;;;;;;;;4976917;28;20030;-22
2022/05/06 05:39:34;;;;;;;11.30;4.13;;;;;;;;;;4959600;28;20058;-23
2022/05/06 05:42:03;;;;;;;7.63;3.92;;;;;;;;;;4976510;28;20050;-23
2022/05/06 05:49:58;;;;;;;14.85;4.30;;;;;;;;;;4976530;28;20096;-22
2022/05/06 05:52:25;;;;;;;10.15;4.07;;;;;;;;;;4976291;28;20026;-24
2022/05/06 05:54:51;;;;;;;9.77;3.78;;;;;;;;;;4976751;28;20023;-21
2022/05/06 05:57:17;;;;;;;7.60;3.42;;;;;;;;;;4976193;28;20109;-22
2022/05/06 05:59:44;;;;;;;7.57;3.90;;;;;;;;;;4976115;28;20034;-21
2022/05/06 06:02:11;;;;;;;13.73;3.63;;;;;;;;;;4976287;28;20045;-24
2022/05/06 06:04:38;;;;;;;6.55;3.70;;;;;;;;;;4976413;28;20101;-29
2022/05/06 06:07:05;;;;;;;5.72;4.07;;;;;;;;;;4976066;28;20033;-21
2022/05/06 06:09:32;;;;;;;12.40;3.97;;;;;;;;;;4975966;28;20034;-23
2022/05/06 06:11:58;;;;;;;9.35;5.13;;;;;;;;;;4975255;28;20118;-21
2022/05/06 06:14:24;;;;;;;8.15;4.07;;;;;;;;;;4976215;28;20058;-21
2022/05/06 06:16:51;;;;;;;15.05;3.80;;;;;;;;;;4976404;28;20026;-20
2022/05/06 06:19:17;;;;;;;10.55;3.63;;;;;;;;;;4976377;28;20034;-21
2022/05/06 06:21:44;;;;;;;9.52;4.22;;;;;;;;;;4975763;28;20122;-23
2022/05/06 06:24:10;;;;;;;7.80;3.92;;;;;;;;;;4976008;28;20031;-21
2022/05/06 06:26:36;;;;;;;13.55;4.50;;;;;;;;;;4975845;28;20027;-22
2022/05/06 06:29:03;;;;;;;8.85;3.45;;;;;;;;;;4976047;28;20387;-24
2022/05/06 06:31:31;;;;;;;8.00;4.68;;;;;;;;;;4976041;28;20134;-22
2022/05/06 06:33:58;;;;;;;9.57;4.57;;;;;;;;;;4975685;28;20138;-22
2022/05/06 06:36:24;;;;;;;5.70;4.10;;;;;;;;;;4975615;28;20023;-23
2022/05/06 06:38:51;;;;;;;14.27;4.10;;;;;;;;;;4975559;28;20061;-21
2022/05/06 06:41:17;;;;;;;13.70;4.03;;;;;;;;;;4959012;28;20083;-22
2022/05/06 06:43:43;;;;;;;14.50;4.30;;;;;;;;;;4958508;28;20146;-22
2022/05/06 06:46:10;;;;;;;11.52;4.03;;;;;;;;;;4975782;28;20333;-21
2022/05/06 06:48:39;;;;;;;5.97;3.58;;;;;;;;;;4975902;28;20027;-22
2022/05/06 06:51:06;;;;;;;15.80;4.68;;;;;;;;;;4975447;28;20034;-21
2022/05/06 06:53:32;;;;;;;9.75;4.45;;;;;;;;;;4975468;28;20023;-22
2022/05/06 06:55:58;;;;;;;5.35;4.82;;;;;;;;;;4975500;28;20427;-22
2022/05/06 06:58:27;;;;;;;12.43;4.38;;;;;;;;;;4943765;28;20114;-22
2022/05/06 07:00:54;;;;;;;14.77;4.35;;;;;;;;;;4975484;28;20062;-20
2022/05/06 07:03:21;;;;;;;8.40;4.13;;;;;;;;;;4975146;28;20050;-21
2022/05/06 07:14:02;;;;;;;7.90;3.72;;;;;;;;;;4975594;28;20050;-22
2022/05/06 07:16:28;;;;;;;12.65;4.97;;;;;;;;;;4975354;28;20122;-22
2022/05/06 07:18:54;;;;;;;13.30;4.22;;;;;;;;;;4975555;28;20093;-22
2022/05/06 07:21:21;;;;;;;6.47;3.40;;;;;;;;;;4975267;28;20030;-23
2022/05/06 07:23:47;;;;;;;7.68;3.83;;;;;;;;;;4959622;28;20035;-22
2022/05/06 07:26:13;;;;;;;8.30;3.65;;;;;;;;;;4979042;28;20468;-22
2022/05/06 07:28:40;;;;;;;11.98;3.92;;;;;;;;;;4961724;28;20380;-23
2022/05/06 07:31:07;;;;;;;6.00;4.10;;;;;;;;;;4978854;28;20022;-22
2022/05/06 07:33:33;;;;;;;7.00;4.63;;;;;;;;;;4978841;28;20392;-22
2022/05/06 07:35:59;;;;;;;6.35;3.97;;;;;;;;;;4978947;28;20054;-21
2022/05/06 07:38:26;;;;;;;15.00;4.43;;;;;;;;;;4978923;28;20093;-26
2022/05/06 07:40:52;;;;;;;7.93;4.38;;;;;;;;;;4978545;28;20030;-21
2022/05/06 07:43:18;;;;;;;9.40;5.25;;;;;;;;;;4978494;28;20463;-22
2022/05/06 07:45:44;;;;;;;13.88;3.65;;;;;;;;;;4978612;28;20033;-22
2022/05/06 07:48:13;;;;;;;9.15;3.83;;;;;;;;;;4979035;28;20022;-21
2022/05/06 07:50:44;;;;;;;11.15;4.10;;;;;;;;;;4978440;28;20041;-22
2022/05/06 07:53:10;;;;;;;7.82;3.60;;;;;;;;;;4978453;28;20130;-22
2022/05/06 07:55:36;;;;;;;8.10;4.35;;;;;;;;;;4978543;28;20037;-24
2022/05/06 07:58:04;;;;;;;11.35;4.40;;;;;;;;;;4978338;28;20023;-22
2022/05/06 08:00:30;;;;;;;10.70;4.65;;;;;;;;;;4978603;28;20046;-22
2022/05/06 08:05:44;;;;;;;12.90;3.95;;;;;;;;;;4978288;28;20050;-22
2022/05/06 08:08:10;;;;;;;11.57;4.05;;;;;;;;;;4978141;28;20035;-22
2022/05/06 08:10:36;;;;;;;7.05;3.67;;;;;;;;;;4978683;28;20035;-22
2022/05/06 08:13:02;;;;;;;13.60;3.90;;;;;;;;;;4978096;28;20019;-22
2022/05/06 08:15:29;;;;;;;16.80;4.28;;;;;;;;;;4978205;28;20051;-24
2022/05/06 08:17:55;;;;;;;15.23;4.30;;;;;;;;;;4977994;28;20098;-22
2022/05/06 08:20:21;;;;;;;7.65;4.22;;;;;;;;;;4978347;28;20037;-24
2022/05/06 08:22:47;;;;;;;14.93;4.80;;;;;;;;;;4977692;28;20400;-22
2022/05/06 08:25:13;;;;;;;14.13;4.55;;;;;;;;;;4960695;28;20126;-21
2022/05/06 08:27:41;;;;;;;14.25;4.78;;;;;;;;;;4977843;28;20105;-21
2022/05/06 08:30:08;;;;;;;9.27;5.00;;;;;;;;;;4977679;28;20031;-24
2022/05/06 08:32:34;;;;;;;11.70;4.10;;;;;;;;;;4977631;28;20022;-23
2022/05/06 08:35:00;;;;;;;10.10;4.47;;;;;;;;;;4977248;28;20023;-21
2022/05/06 08:37:27;;;;;;;18.90;4.38;;;;;;;;;;4977987;28;20030;-23
2022/05/06 08:39:53;;;;;;;13.88;3.60;;;;;;;;;;4977761;28;20053;-23
2022/05/06 08:42:20;;;;;;;12.05;5.22;;;;;;;;;;4977907;28;20367;-24
2022/05/06 08:53:02;;;;;;;13.40;4.25;;;;;;;;;;4977404;28;20487;-24
2022/05/06 08:55:29;;;;;;;17.02;3.78;;;;;;;;;;4977370;28;20034;-22
2022/05/06 08:57:55;;;;;;;14.98;3.67;;;;;;;;;;4977611;28;20360;-23
2022/05/06 09:00:26;;;;;;;11.55;5.35;;;;;;;;;;4977259;28;20063;-22
2022/05/06 09:02:52;;;;;;;10.00;4.85;;;;;;;;;;4977097;28;20491;-23
2022/05/06 09:05:19;;;;;;;13.43;4.78;;;;;;;;;;4977321;28;20031;-22
2022/05/06 09:07:55;;;;;;;11.23;4.28;;;;;;;;;;4977437;28;20041;-23
2022/05/06 09:10:22;;;;;;;18.13;5.20;;;;;;;;;;4976929;28;20420;-21
2022/05/06 09:12:52;;;;;;;14.98;4.40;;;;;;;;;;4976999;28;20066;-22
2022/05/06 09:18:05;;;;;;;16.90;4.45;;;;;;;;;;4977136;28;20046;-22
2022/05/06 09:20:32;;;;;;;14.20;5.47;;;;;;;;;;4976882;28;20030;-24
2022/05/06 09:22:58;;;;;;;14.95;4.82;;;;;;;;;;4976870;28;20123;-21
2022/05/06 09:25:34;;;;;;;17.35;5.38;;;;;;;;;;4976750;28;20027;-24
2022/05/06 09:28:00;;;;;;;11.32;4.85;;;;;;;;;;4959651;28;20069;-23
2022/05/06 09:30:26;;;;;;;8.60;4.25;;;;;;;;;;4976842;28;20401;-21
2022/05/06 09:32:52;;;;;;;9.27;3.83;;;;;;;;;;4959455;28;20055;-20
2022/05/06 09:35:19;;;;;;;12.27;4.75;;;;;;;;;;4976599;28;20106;-22
2022/05/06 09:37:49;;;;;;;10.40;4.50;;;;;;;;;;4976521;28;20035;-23
2022/05/06 09:40:16;;;;;;;20.52;5.10;;;;;;;;;;4977029;28;20030;-21
2022/05/06 09:42:43;;;;;;;16.33;4.43;;;;;;;;;;4976442;28;20023;-21
2022/05/06 09:45:13;;;;;;;23.80;5.70;;;;;;;;;;4976330;28;20052;-21
2022/05/06 09:47:40;;;;;;;18.42;5.00;;;;;;;;;;4976110;28;20019;-24
2022/05/06 09:50:08;;;;;;;43.15;6.40;;;;;;;;;;4976566;28;20074;-21
2022/05/06 09:52:35;;;;;;;10.45;5.00;;;;;;;;;;4976569;28;20023;-22
2022/05/06 09:55:03;;;;;;;14.88;6.35;;;;;;;;;;4976486;28;20034;-21
2022/05/06 09:57:29;;;;;;;8.52;4.55;;;;;;;;;;4976211;28;20110;-22
2022/05/06 09:59:55;;;;;;;8.68;4.43;;;;;;;;;;4959186;28;20031;-27
2022/05/06 10:02:21;;;;;;;9.90;4.28;;;;;;;;;;4958774;28;20046;-25
2022/05/06 10:04:48;;;;;;;11.35;3.78;;;;;;;;;;4976428;28;20109;-22
2022/05/06 10:07:16;;;;;;;9.55;4.55;;;;;;;;;;4975990;28;20031;-24
2022/05/06 10:10:15;;;;;;;11.27;5.32;;;;;;;;;;4976038;28;20027;-25
2022/05/06 10:12:43;;;;;;;18.15;4.65;;;;;;;;;;4961662;28;20051;-22
2022/05/06 10:15:12;;;;;;;21.80;5.25;;;;;;;;;;4958977;28;20027;-22
2022/05/06 10:17:48;;;;;;;11.68;4.97;;;;;;;;;;4976215;28;20101;-22
2022/05/06 10:20:33;;;;;;;12.05;5.50;;;;;;;;;;4976009;28;20114;-23
2022/05/06 10:22:59;;;;;;;13.55;4.72;;;;;;;;;;4976094;28;20035;-26
2022/05/06 10:25:55;;;;;;;10.13;4.32;;;;;;;;;;4975991;28;20101;-21
2022/05/06 10:34:16;;;;;;;13.50;5.93;;;;;;;;;;4975964;28;20053;-22
2022/05/06 10:37:02;;;;;;;9.75;5.43;;;;;;;;;;4976303;28;20463;-24
2022/05/06 10:39:38;;;;;;;10.85;4.57;;;;;;;;;;4975746;28;20115;-26
2022/05/06 10:42:04;;;;;;;16.75;6.53;;;;;;;;;;4958654;28;20349;-22
2022/05/06 10:44:36;;;;;;;12.45;4.90;;;;;;;;;;4976103;28;20035;-22
2022/05/06 10:47:03;;;;;;;11.32;4.57;;;;;;;;;;4975686;28;20034;-22
2022/05/06 10:49:35;;;;;;;10.65;4.55;;;;;;;;;;4975645;28;20034;-22
2022/05/06 10:52:18;;;;;;;13.88;4.72;;;;;;;;;;4975562;28;20027;-25
2022/05/06 10:54:52;;;;;;;12.23;5.35;;;;;;;;;;4975825;28;20031;-22
2022/05/06 10:57:22;;;;;;;15.20;5.30;;;;;;;;;;4959080;28;20045;-22
2022/05/06 10:59:48;;;;;;;14.13;5.30;;;;;;;;;;4979728;28;20106;-24
2022/05/06 11:02:15;;;;;;;11.25;5.30;;;;;;;;;;4979418;28;20285;-21
2022/05/06 11:04:41;;;;;;;17.70;5.65;;;;;;;;;;4979631;28;20337;-22
2022/05/06 11:07:11;;;;;;;13.43;5.75;;;;;;;;;;4979683;28;20030;-21
2022/05/06 11:09:38;;;;;;;11.75;5.68;;;;;;;;;;4979633;28;20039;-22
2022/05/06 11:12:04;;;;;;;10.98;4.93;;;;;;;;;;4979727;28;20030;-22
2022/05/06 11:14:30;;;;;;;15.13;6.05;;;;;;;;;;4979615;28;20030;-21
2022/05/06 11:17:18;;;;;;;12.35;5.88;;;;;;;;;;4979288;28;20105;-22
2022/05/06 11:19:44;;;;;;;13.38;5.82;;;;;;;;;;4979315;28;20026;-22
2022/05/06 11:22:10;;;;;;;10.40;5.88;;;;;;;;;;4979061;28;20082;-22
2022/05/06 11:24:37;;;;;;;14.13;5.00;;;;;;;;;;4979557;28;20026;-21
2022/05/06 11:27:16;;;;;;;13.43;5.28;;;;;;;;;;4979463;28;20094;-21
2022/05/06 11:29:55;;;;;;;12.85;5.03;;;;;;;;;;4979028;28;20034;-21
2022/05/06 11:32:22;;;;;;;11.65;6.63;;;;;;;;;;4978759;28;20456;-21
2022/05/06 11:34:53;;;;;;;14.98;5.85;;;;;;;;;;4979097;28;20109;-24
2022/05/06 11:37:23;;;;;;;15.05;4.50;;;;;;;;;;4979065;28;20030;-21
2022/05/06 11:39:49;;;;;;;8.75;5.05;;;;;;;;;;4978927;28;20443;-25
2022/05/06 11:42:20;;;;;;;9.27;5.65;;;;;;;;;;4978932;28;20031;-21
2022/05/06 11:47:40;;;;;;;14.73;5.15;;;;;;;;;;4979177;28;20042;-21
2022/05/06 11:50:06;;;;;;;15.00;5.00;;;;;;;;;;4978871;28;20058;-21
2022/05/06 11:52:33;;;;;;;14.38;5.88;;;;;;;;;;4978454;28;20312;-22
2022/05/06 11:55:00;;;;;;;16.40;4.65;;;;;;;;;;4978501;28;20057;-21
2022/05/06 11:57:26;;;;;;;20.63;6.13;;;;;;;;;;4978992;28;20027;-21
2022/05/06 11:59:52;;;;;;;24.20;5.55;;;;;;;;;;4978658;28;20026;-21
2022/05/06 12:02:19;;;;;;;10.95;5.30;;;;;;;;;;4978298;28;20030;-22
2022/05/06 12:04:45;;;;;;;15.20;4.70;;;;;;;;;;4978643;28;20105;-22
2022/05/06 12:07:11;;;;;;;14.57;5.80;;;;;;;;;;4978239;28;20035;-23
2022/05/06 12:09:44;;;;;;;16.42;5.25;;;;;;;;;;4978219;28;20043;-21
2022/05/06 12:12:11;;;;;;;18.83;5.18;;;;;;;;;;4978040;28;20073;-21
2022/05/06 12:14:38;;;;;;;13.20;5.07;;;;;;;;;;4978561;28;20026;-23
2022/05/06 12:17:05;;;;;;;11.98;5.00;;;;;;;;;;4977969;28;20042;-25
2022/05/06 12:19:39;;;;;;;14.98;6.22;;;;;;;;;;4978237;28;20035;-24
2022/05/06 12:22:09;;;;;;;13.88;5.10;;;;;;;;;;4960954;28;20045;-21
2022/05/06 12:24:43;;;;;;;11.07;5.70;;;;;;;;;;4978586;28;20031;-21
2022/05/06 12:27:09;;;;;;;16.08;5.72;;;;;;;;;;4978173;28;20026;-21
2022/05/06 12:29:36;;;;;;;14.38;5.40;;;;;;;;;;4977845;28;20427;-21
2022/05/06 12:32:06;;;;;;;15.18;5.55;;;;;;;;;;4977767;28;20073;-22
2022/05/06 12:34:33;;;;;;;14.95;5.25;;;;;;;;;;4978101;28;20051;-22
2022/05/06 12:37:15;;;;;;;25.67;8.75;;;;;;;;;;4977809;28;20483;-22
2022/05/06 12:39:50;;;;;;;12.02;5.53;;;;;;;;;;4977689;28;20050;-25
2022/05/06 12:42:17;;;;;;;13.70;5.22;;;;;;;;;;4977935;28;20031;-26
2022/05/06 12:44:44;;;;;;;10.57;4.78;;;;;;;;;;4977712;28;20045;-22
2022/05/06 12:47:13;;;;;;;15.02;5.78;;;;;;;;;;4977792;28;20038;-23
2022/05/06 12:49:39;;;;;;;14.20;5.32;;;;;;;;;;4977424;28;20034;-22
2022/05/06 12:52:07;;;;;;;23.30;5.28;;;;;;;;;;4977645;28;20050;-21
2022/05/06 12:54:34;;;;;;;13.73;5.35;;;;;;;;;;4977285;28;20030;-27
2022/05/06 12:57:00;;;;;;;9.07;6.22;;;;;;;;;;4977480;28;20034;-22
2022/05/06 12:59:27;;;;;;;14.75;5.03;;;;;;;;;;4977236;28;20093;-22
2022/05/06 13:01:53;;;;;;;27.08;7.25;;;;;;;;;;4977043;28;20479;-22
2022/05/06 13:04:20;;;;;;;9.23;6.07;;;;;;;;;;4976981;28;20043;-22
2022/05/06 13:06:46;;;;;;;17.23;5.40;;;;;;;;;;4977206;28;20058;-25
2022/05/06 13:09:13;;;;;;;9.27;4.97;;;;;;;;;;4977126;28;20026;-25
2022/05/06 13:11:39;;;;;;;14.80;5.55;;;;;;;;;;4976984;28;20062;-22
2022/05/06 13:14:07;;;;;;;14.52;5.10;;;;;;;;;;4976750;28;20030;-23
2022/05/06 13:16:35;;;;;;;18.20;5.28;;;;;;;;;;4959954;28;20464;-21
2022/05/06 13:19:02;;;;;;;16.92;6.30;;;;;;;;;;4977038;28;20511;-23
2022/05/06 13:21:28;;;;;;;14.65;5.25;;;;;;;;;;4976820;28;20026;-23
2022/05/06 13:23:54;;;;;;;9.18;5.50;;;;;;;;;;4976763;28;20045;-24
2022/05/06 13:26:20;;;;;;;11.68;5.65;;;;;;;;;;4976732;28;20030;-22
2022/05/06 13:28:46;;;;;;;8.85;4.93;;;;;;;;;;4977139;28;20045;-24
2022/05/06 13:31:13;;;;;;;21.75;5.07;;;;;;;;;;4976672;28;20019;-24
2022/05/06 13:33:40;;;;;;;12.48;6.70;;;;;;;;;;4976378;28;20045;-24
2022/05/06 13:36:06;;;;;;;13.93;5.60;;;;;;;;;;4976540;28;20031;-22
2022/05/06 13:38:32;;;;;;;17.38;6.28;;;;;;;;;;4976515;28;20023;-23
2022/05/06 13:40:58;;;;;;;15.82;5.63;;;;;;;;;;4959439;28;20464;-22
2022/05/06 13:43:25;;;;;;;11.05;4.95;;;;;;;;;;4976274;28;20031;-22
2022/05/06 13:45:51;;;;;;;19.67;7.03;;;;;;;;;;4976359;28;20518;-23
2022/05/06 13:48:17;;;;;;;10.77;5.53;;;;;;;;;;4976338;28;20101;-22
2022/05/06 13:50:43;;;;;;;9.25;5.22;;;;;;;;;;4976301;28;20026;-26
2022/05/06 13:53:10;;;;;;;10.77;5.50;;;;;;;;;;4976354;28;20026;-23
2022/05/06 14:01:06;;;;;;;12.13;5.93;;;;;;;;;;4976111;28;20392;-25
2022/05/06 14:03:32;;;;;;;9.32;4.53;;;;;;;;;;4958722;28;20047;-22
2022/05/06 14:05:58;;;;;;;10.85;5.70;;;;;;;;;;4958906;28;20030;-24
2022/05/06 14:08:24;;;;;;;14.13;5.15;;;;;;;;;;4975961;28;20034;-23
2022/05/06 14:10:51;;;;;;;8.05;5.07;;;;;;;;;;4975839;28;20038;-23
2022/05/06 14:13:17;;;;;;;8.35;5.07;;;;;;;;;;4975924;28;20026;-23
2022/05/06 14:15:43;;;;;;;15.45;5.40;;;;;;;;;;4976477;28;20408;-25
2022/05/06 14:18:09;;;;;;;12.93;5.97;;;;;;;;;;4976139;28;20027;-21
2022/05/06 14:20:35;;;;;;;12.80;5.38;;;;;;;;;;4959212;28;20037;-21
2022/05/06 14:23:02;;;;;;;15.43;6.32;;;;;;;;;;4975738;28;20030;-24
2022/05/06 14:25:29;;;;;;;18.48;6.25;;;;;;;;;;4975964;28;20038;-21
2022/05/06 14:27:55;;;;;;;12.38;5.50;;;;;;;;;;4975861;28;20092;-21
2022/05/06 14:30:21;;;;;;;13.00;5.72;;;;;;;;;;4975692;28;20037;-24
2022/05/06 14:32:47;;;;;;;10.90;5.65;;;;;;;;;;4958218;28;20113;-22
2022/05/06 14:35:18;;;;;;;13.70;6.25;;;;;;;;;;4976170;28;20023;-22
2022/05/06 14:37:45;;;;;;;;;;;;;;;;;;4976323;28;20018;-24
2022/05/06 14:40:11;;;;;;;14.52;5.85;;;;;;;;;;4975888;28;20250;-21
2022/05/06 14:42:37;;;;;;;16.08;5.65;;;;;;;;;;4975858;28;20023;-22
2022/05/06 14:45:04;;;;;;;14.40;5.72;;;;;;;;;;4958279;28;20487;-21
2022/05/06 14:47:30;;;;;;;10.98;6.25;;;;;;;;;;4975761;28;20090;-25
2022/05/06 14:49:56;;;;;;;11.50;6.88;;;;;;;;;;4975433;28;20031;-22
2022/05/06 14:52:23;;;;;;;14.50;6.05;;;;;;;;;;4975392;28;20120;-23
2022/05/06 14:55:01;;;;;;;12.13;5.97;;;;;;;;;;4975458;28;20422;-22
2022/05/06 14:57:27;;;;;;;9.60;5.65;;;;;;;;;;4976248;28;20023;-22
2022/05/06 14:59:53;;;;;;;8.70;6.03;;;;;;;;;;4975848;28;20364;-22
2022/05/06 15:02:19;;;;;;;21.95;5.93;;;;;;;;;;4975442;28;20475;-23
2022/05/06 15:04:45;;;;;;;15.65;5.97;;;;;;;;;;4975699;28;20042;-22
2022/05/06 15:07:12;;;;;;;11.80;5.70;;;;;;;;;;4958356;28;20133;-22
2022/05/06 15:09:38;;;;;;;10.77;5.68;;;;;;;;;;4975202;28;20058;-21
2022/05/06 15:12:05;;;;;;;12.95;5.80;;;;;;;;;;4975209;28;20098;-23
2022/05/06 15:14:32;;;;;;;7.32;5.68;;;;;;;;;;4975251;28;20031;-22
2022/05/06 15:17:07;;;;;;;14.52;5.43;;;;;;;;;;4958204;28;20058;-26
2022/05/06 15:19:37;;;;;;;18.52;6.70;;;;;;;;;;4975495;28;20215;-22
2022/05/06 15:22:06;;;;;;;10.35;6.10;;;;;;;;;;4975430;28;20368;-22
2022/05/06 15:24:32;;;;;;;15.32;6.47;;;;;;;;;;4975479;28;20035;-23
2022/05/06 15:26:58;;;;;;;6.90;5.40;;;;;;;;;;4975263;28;20431;-24